Time;durP1;ratioP1;P1;durP2;ratioP2;P2;SDS_P1;SDS_P2;PMS_P1;PMS_P2;Temp;Humidity;BMP_temperature;BMP_pressure;BME280_temperature;BME280_humidity;BME280_pressure;Samples;Min_cycle;Max_cycle;Signal;HPM_P1;HPM_P2
2022/07/29 00:02:09;;;;;;;1.10;0.38;;;;;;;15.43;100.00;101071.31;5083253;28;20346;-49
2022/07/29 00:04:35;;;;;;;1.85;0.30;;;;;;;15.45;100.00;101071.13;5083362;28;20498;-50
2022/07/29 00:07:01;;;;;;;0.52;0.20;;;;;;;15.43;100.00;101075.84;5083605;28;20038;-49
2022/07/29 00:09:27;;;;;;;2.45;0.17;;;;;;;15.40;100.00;101074.41;5083110;28;20020;-51
2022/07/29 00:11:55;;;;;;;0.45;0.45;;;;;;;15.40;100.00;101070.91;5083687;28;20024;-52
2022/07/29 00:14:20;;;;;;;0.73;0.38;;;;;;;15.37;100.00;101072.16;5083797;28;20085;-51
2022/07/29 00:16:45;;;;;;;0.22;0.22;;;;;;;15.33;100.00;101067.44;5085675;28;20020;-49
2022/07/29 00:19:11;;;;;;;4.80;0.08;;;;;;;15.29;100.00;101072.38;5084130;28;20044;-54
2022/07/29 00:21:36;;;;;;;2.92;0.22;;;;;;;15.27;100.00;101069.09;5087397;28;20034;-51
2022/07/29 00:24:02;;;;;;;0.35;0.20;;;;;;;15.23;100.00;101066.03;5085729;28;20034;-50
2022/07/29 00:26:31;;;;;;;0.55;0.15;;;;;;;15.19;100.00;101077.31;5087216;28;20036;-48
2022/07/29 00:28:57;;;;;;;2.25;0.20;;;;;;;15.15;100.00;101068.88;5083339;28;20028;-50
2022/07/29 00:31:23;;;;;;;3.42;0.17;;;;;;;15.14;100.00;101067.25;5084023;28;20058;-50
2022/07/29 00:33:48;;;;;;;3.58;0.20;;;;;;;15.08;100.00;101068.09;5085948;28;20028;-48
2022/07/29 00:36:13;;;;;;;0.47;0.10;;;;;;;14.98;100.00;101068.50;5085629;28;20123;-52
2022/07/29 00:38:41;;;;;;;0.68;0.38;;;;;;;14.93;100.00;101056.78;5085443;28;20059;-48
2022/07/29 00:41:06;;;;;;;2.75;0.10;;;;;;;14.89;100.00;101061.69;5086107;28;20092;-48
2022/07/29 00:43:32;;;;;;;1.15;0.10;;;;;;;14.79;100.00;101066.63;5083882;28;20039;-47
2022/07/29 00:45:57;;;;;;;2.97;1.30;;;;;;;14.68;100.00;101064.56;5083122;28;20035;-52
2022/07/29 00:48:22;;;;;;;1.48;0.10;;;;;;;14.66;100.00;101066.63;5085559;28;20161;-50
2022/07/29 00:50:49;;;;;;;2.40;0.10;;;;;;;14.60;100.00;101065.59;5083858;28;20013;-47
2022/07/29 00:53:14;;;;;;;1.80;0.20;;;;;;;14.50;100.00;101055.28;5086874;28;20051;-49
2022/07/29 00:55:40;;;;;;;2.10;0.30;;;;;;;14.41;100.00;101064.50;5081583;28;20036;-48
2022/07/29 00:58:06;;;;;;;0.55;0.00;;;;;;;14.36;100.00;101064.28;5083294;28;20028;-51
2022/07/29 01:00:31;;;;;;;1.05;0.20;;;;;;;14.25;100.00;101062.19;5076786;28;20032;-52
2022/07/29 01:02:57;;;;;;;3.83;0.60;;;;;;;14.17;100.00;101066.69;5083354;28;20361;-48
2022/07/29 01:05:26;;;;;;;8.93;0.40;;;;;;;14.11;100.00;101070.16;5083100;28;20389;-47
2022/07/29 01:07:53;;;;;;;0.52;0.00;;;;;;;14.03;100.00;101070.34;5083123;28;20073;-51
2022/07/29 01:10:20;;;;;;;0.28;0.20;;;;;;;13.90;100.00;101068.44;5082304;28;20025;-51
2022/07/29 01:12:48;;;;;;;3.03;0.90;;;;;;;13.74;100.00;101068.78;5082722;28;20051;-47
2022/07/29 01:15:14;;;;;;;3.65;0.52;;;;;;;13.62;100.00;101071.16;5081627;28;20060;-50
2022/07/29 01:17:45;;;;;;;1.75;0.30;;;;;;;13.49;100.00;101063.91;5085496;28;20176;-50
2022/07/29 01:20:51;;;;;;;1.30;0.53;;;;;;;13.31;100.00;101074.25;5082538;28;20471;-50
2022/07/29 01:23:30;;;;;;;0.40;0.10;;;;;;;13.17;100.00;101073.31;5079124;28;20807;-49
2022/07/29 01:26:07;;;;;;;1.75;0.32;;;;;;;13.13;100.00;101074.69;5080285;28;20032;-49
2022/07/29 01:28:52;;;;;;;3.35;0.20;;;;;;;13.08;100.00;101079.78;5087962;28;20032;-50
2022/07/29 01:31:43;;;;;;;3.63;0.47;;;;;;;13.00;100.00;101082.59;5076097;28;20028;-52
2022/07/29 01:34:13;;;;;;;0.30;0.10;;;;;;;12.89;100.00;101086.59;5085536;28;20048;-50
2022/07/29 01:36:50;;;;;;;0.10;0.10;;;;;;;12.80;100.00;101077.09;5086395;28;20077;-53
2022/07/29 01:39:36;;;;;;;1.38;0.20;;;;;;;12.70;100.00;101079.25;5076923;28;20032;-51
2022/07/29 01:42:11;;;;;;;0.20;0.10;;;;;;;12.61;100.00;101078.56;5082684;28;20042;-48
2022/07/29 01:45:01;;;;;;;3.58;0.30;;;;;;;12.54;100.00;101081.13;5072493;28;20024;-49
2022/07/29 01:47:37;;;;;;;0.20;0.10;;;;;;;12.46;100.00;101091.06;5073763;28;20560;-50
2022/07/29 01:50:07;;;;;;;0.28;0.20;;;;;;;12.37;100.00;101083.22;5071009;28;20550;-48
2022/07/29 01:52:41;;;;;;;0.55;0.35;;;;;;;12.31;100.00;101086.59;5081184;28;20127;-49
2022/07/29 01:55:12;;;;;;;4.35;0.80;;;;;;;12.23;100.00;101095.53;5074014;28;20411;-49
2022/07/29 01:57:40;;;;;;;2.60;0.20;;;;;;;12.13;100.00;101092.38;5080875;28;20031;-49
2022/07/29 02:00:07;;;;;;;4.70;0.45;;;;;;;12.05;100.00;101099.59;5084291;28;20063;-51
2022/07/29 02:02:35;;;;;;;2.58;0.00;;;;;;;11.98;100.00;101089.72;5074791;28;20043;-50
2022/07/29 02:05:02;;;;;;;1.30;0.47;;;;;;;11.93;100.00;101102.75;5075471;28;20036;-49
2022/07/29 02:07:30;;;;;;;3.10;0.20;;;;;;;11.88;100.00;101097.16;5083382;28;20059;-49
2022/07/29 02:09:57;;;;;;;2.10;0.20;;;;;;;11.82;100.00;101103.16;5083593;28;20041;-50
2022/07/29 02:12:25;;;;;;;3.45;0.20;;;;;;;11.73;100.00;101105.09;5087029;28;20420;-47
2022/07/29 02:14:53;;;;;;;2.28;0.28;;;;;;;11.66;100.00;101106.00;5085990;28;20067;-50
2022/07/29 02:17:25;;;;;;;0.10;0.10;;;;;;;11.57;100.00;101111.41;5085303;28;20140;-51
2022/07/29 02:19:56;;;;;;;0.47;0.10;;;;;;;11.54;100.00;101105.66;5077806;28;20436;-47
2022/07/29 02:22:22;;;;;;;0.98;0.10;;;;;;;11.46;100.00;101106.56;5083689;28;20144;-47
2022/07/29 02:24:51;;;;;;;3.30;0.20;;;;;;;11.40;100.00;101107.25;5081270;28;20152;-52
2022/07/29 02:27:18;;;;;;;2.58;0.10;;;;;;;11.31;100.00;101111.84;5084306;28;20032;-48
2022/07/29 02:29:46;;;;;;;0.35;0.30;;;;;;;11.23;100.00;101111.06;5082923;28;20131;-51
2022/07/29 02:32:14;;;;;;;5.93;0.63;;;;;;;11.13;100.00;101114.81;5083602;28;20039;-49
2022/07/29 02:34:41;;;;;;;0.68;0.20;;;;;;;11.07;100.00;101112.03;5085483;28;20051;-52
2022/07/29 02:37:09;;;;;;;1.52;0.13;;;;;;;10.99;100.00;101120.06;5082397;28;20035;-48
2022/07/29 02:39:37;;;;;;;4.57;0.10;;;;;;;10.98;100.00;101124.56;5083332;28;20124;-49
2022/07/29 02:42:07;;;;;;;3.03;0.10;;;;;;;10.96;100.00;101126.56;5084134;28;20106;-50
2022/07/29 02:44:35;;;;;;;1.02;0.20;;;;;;;10.94;100.00;101115.28;5082189;28;20097;-47
2022/07/29 02:47:25;;;;;;;2.03;0.20;;;;;;;10.93;100.00;101120.78;5074212;28;20028;-47
2022/07/29 02:49:56;;;;;;;0.08;0.00;;;;;;;10.80;100.00;101127.50;5079269;28;20031;-50
2022/07/29 02:52:46;;;;;;;1.03;0.13;;;;;;;10.67;100.00;101127.28;5083180;28;20036;-47
2022/07/29 02:55:29;;;;;;;2.10;0.23;;;;;;;10.53;100.00;101120.88;5084178;28;20268;-48
2022/07/29 02:58:00;;;;;;;0.30;0.25;;;;;;;10.50;100.00;101125.72;5079991;28;20292;-47
2022/07/29 03:00:29;;;;;;;0.32;0.00;;;;;;;10.48;100.00;101120.59;5079969;28;20060;-47
2022/07/29 03:02:58;;;;;;;3.20;0.30;;;;;;;10.47;100.00;101119.75;5085225;28;20400;-49
2022/07/29 03:05:24;;;;;;;1.30;0.45;;;;;;;10.42;100.00;101124.75;5088551;28;20377;-51
2022/07/29 03:07:57;;;;;;;4.20;0.20;;;;;;;10.38;100.00;101122.63;5090182;28;20024;-49
2022/07/29 03:10:25;;;;;;;1.08;0.10;;;;;;;10.41;100.00;101128.41;5085438;28;20047;-49
2022/07/29 03:12:51;;;;;;;3.80;1.38;;;;;;;10.43;100.00;101126.41;5087313;28;20497;-49
2022/07/29 03:15:18;;;;;;;0.50;0.50;;;;;;;10.43;100.00;101122.94;5086505;28;20035;-49
2022/07/29 03:17:43;;;;;;;0.38;0.15;;;;;;;10.35;100.00;101123.81;5083256;28;20491;-49
2022/07/29 03:20:11;;;;;;;0.73;0.15;;;;;;;10.32;100.00;101129.44;5081376;28;20024;-49
2022/07/29 03:22:46;;;;;;;0.65;0.20;;;;;;;10.36;100.00;101125.44;5084178;28;20046;-48
2022/07/29 03:25:13;;;;;;;0.82;0.43;;;;;;;10.42;100.00;101115.97;5079782;28;20036;-51
2022/07/29 03:27:39;;;;;;;2.85;0.20;;;;;;;10.49;100.00;101114.28;5081062;28;20032;-50
2022/07/29 03:30:06;;;;;;;3.28;0.82;;;;;;;10.51;100.00;101119.38;5083613;28;20388;-47
2022/07/29 03:32:32;;;;;;;0.95;0.25;;;;;;;10.48;100.00;101117.94;5083934;28;20040;-48
2022/07/29 03:34:57;;;;;;;1.10;0.10;;;;;;;10.49;100.00;101124.88;5076491;28;20089;-48
2022/07/29 03:37:23;;;;;;;0.65;0.32;;;;;;;10.49;100.00;101124.88;5078249;28;20028;-49
2022/07/29 03:39:50;;;;;;;4.18;0.20;;;;;;;10.48;100.00;101124.06;5087986;28;20036;-49
2022/07/29 03:42:18;;;;;;;1.10;0.85;;;;;;;10.48;100.00;101123.25;5082106;28;20020;-50
2022/07/29 03:44:47;;;;;;;0.50;0.20;;;;;;;10.50;100.00;101123.88;5084213;28;20024;-47
2022/07/29 03:47:14;;;;;;;0.75;0.13;;;;;;;10.46;100.00;101127.91;5079348;28;20457;-48
2022/07/29 03:49:42;;;;;;;0.85;0.10;;;;;;;10.43;100.00;101129.06;5080169;28;20090;-47
2022/07/29 03:52:07;;;;;;;0.57;0.10;;;;;;;10.37;100.00;101129.75;5086794;28;20632;-47
2022/07/29 03:54:34;;;;;;;0.30;0.05;;;;;;;10.39;100.00;101132.22;5084099;28;20480;-50
2022/07/29 03:57:01;;;;;;;2.05;0.50;;;;;;;10.38;100.00;101135.91;5087077;28;20246;-51
2022/07/29 03:59:27;;;;;;;0.57;0.15;;;;;;;10.37;100.00;101150.94;5076920;28;20033;-49
2022/07/29 04:01:55;;;;;;;0.63;0.10;;;;;;;10.38;100.00;101149.16;5085027;28;20107;-49
2022/07/29 04:04:21;;;;;;;4.70;0.20;;;;;;;10.34;100.00;101143.34;5077163;28;20085;-52
2022/07/29 04:06:46;;;;;;;2.30;0.15;;;;;;;10.28;100.00;101148.53;5080896;28;20388;-48
2022/07/29 04:09:12;;;;;;;1.90;0.32;;;;;;;10.20;100.00;101147.53;5075870;28;20036;-48
2022/07/29 04:11:41;;;;;;;0.80;0.52;;;;;;;10.20;100.00;101142.22;5084493;28;20033;-46
2022/07/29 04:14:07;;;;;;;1.13;0.20;;;;;;;10.24;100.00;101145.34;5084314;28;20568;-50
2022/07/29 04:16:32;;;;;;;1.10;0.32;;;;;;;10.32;100.00;101145.34;5080907;28;20123;-47
2022/07/29 04:18:58;;;;;;;0.85;0.10;;;;;;;10.35;100.00;101145.03;5085706;28;20135;-47
2022/07/29 04:21:24;;;;;;;3.20;0.32;;;;;;;10.35;100.00;101147.66;5080541;28;20153;-47
2022/07/29 04:23:49;;;;;;;0.30;0.10;;;;;;;10.39;100.00;101145.50;5085486;28;20077;-51
2022/07/29 04:26:19;;;;;;;0.80;0.25;;;;;;;10.41;100.00;101148.78;5083153;28;20032;-50
2022/07/29 04:28:45;;;;;;;3.65;0.25;;;;;;;10.41;100.00;101146.97;5083724;28;20396;-50
2022/07/29 04:31:12;;;;;;;0.30;0.30;;;;;;;10.40;100.00;101147.97;5085935;28;20024;-51
2022/07/29 04:33:37;;;;;;;0.60;0.28;;;;;;;10.42;100.00;101156.56;5087932;28;20035;-48
2022/07/29 04:36:03;;;;;;;1.08;0.57;;;;;;;10.44;100.00;101143.97;5085000;28;20027;-50
2022/07/29 04:38:28;;;;;;;0.85;0.40;;;;;;;10.47;100.00;101148.91;5087540;28;20056;-47
2022/07/29 04:40:53;;;;;;;2.55;0.28;;;;;;;10.47;100.00;101151.56;5085249;28;20059;-50
2022/07/29 04:43:19;;;;;;;4.68;0.55;;;;;;;10.52;100.00;101156.34;5079900;28;20035;-48
2022/07/29 04:45:44;;;;;;;2.30;0.20;;;;;;;10.57;100.00;101151.34;5077701;28;20145;-49
2022/07/29 04:48:10;;;;;;;1.10;0.40;;;;;;;10.64;100.00;101156.78;5084120;28;20275;-49
2022/07/29 04:50:38;;;;;;;4.65;0.15;;;;;;;10.69;100.00;101152.63;5082002;28;20118;-50
2022/07/29 04:53:03;;;;;;;0.77;0.25;;;;;;;10.77;100.00;101159.69;5079397;28;20755;-49
2022/07/29 04:55:29;;;;;;;0.63;0.20;;;;;;;10.78;100.00;101152.56;5082619;28;20115;-50
2022/07/29 04:57:54;;;;;;;1.17;0.40;;;;;;;10.79;100.00;101148.88;5081413;28;20077;-49
2022/07/29 05:00:19;;;;;;;1.58;0.60;;;;;;;10.79;100.00;101152.41;5078551;28;20051;-51
2022/07/29 05:02:45;;;;;;;4.13;0.10;;;;;;;10.80;100.00;101155.88;5082987;28;20020;-50
2022/07/29 05:05:10;;;;;;;0.20;0.20;;;;;;;10.80;100.00;101154.03;5085492;28;20188;-48
2022/07/29 05:07:36;;;;;;;2.80;0.20;;;;;;;10.86;100.00;101163.09;5084303;28;20254;-49
2022/07/29 05:10:01;;;;;;;4.05;0.77;;;;;;;10.90;100.00;101154.63;5075214;28;20024;-49
2022/07/29 05:12:27;;;;;;;0.28;0.20;;;;;;;10.99;100.00;101165.19;5081293;28;20484;-47
2022/07/29 05:14:53;;;;;;;0.90;0.08;;;;;;;11.10;100.00;101157.63;5084372;28;20028;-49
2022/07/29 05:17:18;;;;;;;5.63;0.35;;;;;;;11.21;100.00;101155.56;5082520;28;20039;-48
2022/07/29 05:19:44;;;;;;;1.20;0.50;;;;;;;11.28;100.00;101161.78;5082878;28;20020;-49
2022/07/29 05:22:09;;;;;;;0.90;0.15;;;;;;;11.31;100.00;101150.84;5083376;28;20039;-52
2022/07/29 05:24:34;;;;;;;2.20;0.20;;;;;;;11.36;100.00;101153.78;5084651;28;20456;-48
2022/07/29 05:27:00;;;;;;;1.48;0.17;;;;;;;11.42;100.00;101154.88;5082587;28;20020;-48
2022/07/29 05:29:25;;;;;;;0.50;0.15;;;;;;;11.44;100.00;101156.34;5080631;28;20028;-49
2022/07/29 05:31:52;;;;;;;0.75;0.20;;;;;;;11.51;100.00;101159.09;5081889;28;20097;-48
2022/07/29 05:34:18;;;;;;;0.93;0.93;;;;;;;11.56;100.00;101165.53;5075683;28;20035;-48
2022/07/29 05:36:44;;;;;;;1.45;0.10;;;;;;;11.62;100.00;101161.34;5079543;28;20032;-51
2022/07/29 05:39:10;;;;;;;1.85;0.10;;;;;;;11.70;100.00;101157.78;5078261;28;20077;-53
2022/07/29 05:41:35;;;;;;;2.20;0.22;;;;;;;11.76;100.00;101160.50;5084122;28;20031;-50
2022/07/29 05:44:01;;;;;;;0.10;0.10;;;;;;;11.84;100.00;101167.56;5078819;28;20058;-49
2022/07/29 05:46:27;;;;;;;2.90;0.30;;;;;;;11.93;100.00;101169.19;5079847;28;20194;-52
2022/07/29 05:48:52;;;;;;;1.05;0.20;;;;;;;12.05;100.00;101169.53;5086364;28;20118;-50
2022/07/29 05:51:18;;;;;;;0.80;0.30;;;;;;;12.18;100.00;101175.03;5081656;28;20063;-48
2022/07/29 05:53:44;;;;;;;15.70;0.82;;;;;;;12.30;100.00;101177.22;5084178;28;20047;-48
2022/07/29 05:56:10;;;;;;;25.92;1.10;;;;;;;12.44;100.00;101185.19;5078344;28;20409;-47
2022/07/29 05:58:36;;;;;;;26.50;2.85;;;;;;;12.55;100.00;101177.75;5085094;28;20019;-49
2022/07/29 06:01:01;;;;;;;19.60;1.48;;;;;;;12.66;100.00;101182.56;5080341;28;20028;-48
2022/07/29 06:03:27;;;;;;;13.55;1.40;;;;;;;12.78;100.00;101170.44;5078733;28;20027;-47
2022/07/29 06:05:52;;;;;;;13.88;1.52;;;;;;;12.93;100.00;101174.84;5082115;28;20036;-47
2022/07/29 06:08:18;;;;;;;8.82;0.25;;;;;;;13.06;100.00;101161.66;5077317;28;20039;-47
2022/07/29 06:10:43;;;;;;;4.63;0.20;;;;;;;13.18;100.00;101164.66;5085368;28;20016;-47
2022/07/29 06:13:09;;;;;;;5.57;0.22;;;;;;;13.28;100.00;101165.19;5084733;28;20032;-47
2022/07/29 06:15:34;;;;;;;0.80;0.00;;;;;;;13.39;100.00;101161.19;5081876;28;20101;-49
2022/07/29 06:18:00;;;;;;;0.10;0.10;;;;;;;13.49;100.00;101165.16;5084813;28;20315;-48
2022/07/29 06:20:26;;;;;;;0.90;0.08;;;;;;;13.61;100.00;101168.13;5084202;28;20038;-46
2022/07/29 06:22:51;;;;;;;7.20;0.82;;;;;;;13.69;100.00;101162.63;5069869;28;20304;-47
2022/07/29 06:25:17;;;;;;;1.02;0.25;;;;;;;13.80;100.00;101165.78;5085500;28;20334;-48
2022/07/29 06:27:42;;;;;;;1.55;0.13;;;;;;;13.84;100.00;101159.88;5085372;28;20028;-47
2022/07/29 06:30:08;;;;;;;2.60;0.20;;;;;;;13.88;100.00;101161.09;5084333;28;20078;-48
2022/07/29 06:32:35;;;;;;;1.60;0.45;;;;;;;13.98;100.00;101171.41;5089630;28;20118;-48
2022/07/29 06:35:00;;;;;;;1.88;0.20;;;;;;;14.12;100.00;101167.81;5084988;28;20027;-47
2022/07/29 06:37:26;;;;;;;2.45;0.35;;;;;;;14.24;100.00;101165.38;5088264;28;20032;-47
2022/07/29 06:40:59;;;;;;;8.68;0.13;;;;;;;14.37;100.00;101168.09;5078760;28;20038;-51
2022/07/29 06:42:36;;;;;;;0.43;0.20;;;;;;;14.49;100.00;101175.56;5081968;28;20036;-50
2022/07/29 06:45:02;;;;;;;0.47;0.47;;;;;;;14.57;100.00;101170.88;5080666;28;20024;-48
2022/07/29 06:47:27;;;;;;;7.18;1.02;;;;;;;14.66;100.00;101165.38;5081991;28;20280;-50
2022/07/29 06:49:53;;;;;;;4.72;0.40;;;;;;;14.74;100.00;101165.19;5083405;28;20089;-50
2022/07/29 06:52:18;;;;;;;4.32;0.52;;;;;;;14.81;100.00;101161.50;5087859;28;20036;-49
2022/07/29 06:54:47;;;;;;;2.13;0.20;;;;;;;14.87;100.00;101167.91;5086588;28;20030;-50
2022/07/29 06:57:13;;;;;;;2.20;0.15;;;;;;;14.93;100.00;101169.75;5085645;28;20040;-51
2022/07/29 06:59:39;;;;;;;2.17;0.28;;;;;;;15.03;100.00;101169.34;5083059;28;20525;-50
2022/07/29 07:02:04;;;;;;;4.45;1.55;;;;;;;15.19;100.00;101173.47;5085817;28;20028;-52
2022/07/29 07:04:29;;;;;;;2.47;0.50;;;;;;;15.34;100.00;101166.09;5086182;28;20093;-53
2022/07/29 07:06:55;;;;;;;1.58;0.10;;;;;;;15.50;100.00;101167.50;5085588;28;20028;-51
2022/07/29 07:09:21;;;;;;;0.75;0.20;;;;;;;15.65;100.00;101173.47;5082428;28;20463;-49
2022/07/29 07:11:46;;;;;;;6.50;0.65;;;;;;;15.83;100.00;101166.69;5086332;28;20028;-50
2022/07/29 07:14:11;;;;;;;1.95;1.02;;;;;;;16.02;100.00;101167.66;5082968;28;20063;-49
2022/07/29 07:16:37;;;;;;;3.20;0.03;;;;;;;16.10;100.00;101165.56;5085331;28;20028;-49
2022/07/29 07:19:02;;;;;;;2.85;0.28;;;;;;;16.17;100.00;101164.75;5082853;28;20098;-48
2022/07/29 07:21:28;;;;;;;3.20;0.40;;;;;;;16.26;100.00;101163.47;5085992;28;20602;-49
2022/07/29 07:23:53;;;;;;;50.75;4.50;;;;;;;16.27;100.00;101160.59;5080755;28;20070;-51
2022/07/29 07:26:19;;;;;;;50.65;3.97;;;;;;;16.29;100.00;101161.19;5085612;28;20405;-54
2022/07/29 07:28:44;;;;;;;30.85;1.80;;;;;;;16.37;100.00;101154.78;5085861;28;20020;-49
2022/07/29 07:31:10;;;;;;;4.35;0.35;;;;;;;16.41;100.00;101157.84;5086840;28;20028;-50
2022/07/29 07:33:36;;;;;;;5.57;0.40;;;;;;;16.42;100.00;101154.97;5083864;28;20129;-51
2022/07/29 07:36:01;;;;;;;4.85;0.20;;;;;;;16.65;100.00;101151.75;5087195;28;20108;-49
2022/07/29 07:38:26;;;;;;;6.15;0.50;;;;;;;16.89;100.00;101149.38;5086753;28;20092;-50
2022/07/29 07:40:52;;;;;;;5.43;0.40;;;;;;;17.02;100.00;101157.31;5085653;28;20036;-51
2022/07/29 07:43:17;;;;;;;2.97;0.65;;;;;;;17.06;100.00;101155.81;5081441;28;20450;-48
2022/07/29 07:45:42;;;;;;;4.15;0.70;;;;;;;17.21;100.00;101142.94;5085913;28;20024;-49
2022/07/29 07:48:09;;;;;;;7.13;0.68;;;;;;;17.45;100.00;101143.16;5082785;28;20032;-52
2022/07/29 07:50:35;;;;;;;30.77;2.03;;;;;;;17.66;100.00;101144.63;5082102;28;20046;-50
2022/07/29 07:53:01;;;;;;;0.57;0.20;;;;;;;17.87;100.00;101146.06;5085527;28;20032;-52
2022/07/29 07:55:27;;;;;;;3.80;0.40;;;;;;;17.91;100.00;101136.50;5083561;28;20498;-50
2022/07/29 07:57:54;;;;;;;1.30;0.65;;;;;;;18.07;100.00;101135.94;5081151;28;20161;-54
2022/07/29 08:00:20;;;;;;;6.50;0.88;;;;;;;18.08;100.00;101140.25;5085413;28;20443;-49
2022/07/29 08:02:45;;;;;;;1.95;0.08;;;;;;;17.89;100.00;101135.94;5086711;28;20052;-53
2022/07/29 08:05:15;;;;;;;3.03;0.45;;;;;;;17.82;100.00;101140.56;5083333;28;20039;-52
2022/07/29 08:07:41;;;;;;;2.38;0.32;;;;;;;17.79;100.00;101130.25;5083957;28;20032;-51
2022/07/29 08:10:06;;;;;;;33.13;3.75;;;;;;;17.81;100.00;101136.22;5083343;28;20091;-55
2022/07/29 08:12:32;;;;;;;8.13;0.73;;;;;;;17.82;100.00;101135.19;5083840;28;20028;-53
2022/07/29 08:14:57;;;;;;;5.63;0.20;;;;;;;17.92;100.00;101122.09;5077000;28;20501;-51
2022/07/29 08:17:23;;;;;;;1.00;0.10;;;;;;;18.10;100.00;101123.94;5085692;28;20043;-52
2022/07/29 08:19:49;;;;;;;2.20;0.10;;;;;;;18.38;100.00;101122.53;5082238;28;20024;-50
2022/07/29 08:22:15;;;;;;;1.40;0.32;;;;;;;18.58;100.00;101119.56;5077487;28;20035;-51
2022/07/29 08:24:43;;;;;;;0.32;0.00;;;;;;;18.68;100.00;101117.16;5085157;28;20376;-56
2022/07/29 08:27:12;;;;;;;1.70;0.60;;;;;;;18.77;100.00;101123.88;5084678;28;20027;-53
2022/07/29 08:29:37;;;;;;;0.35;0.05;;;;;;;19.00;100.00;101119.59;5084056;28;20020;-51
2022/07/29 08:32:03;;;;;;;1.27;0.10;;;;;;;19.16;100.00;101124.31;5085749;28;20492;-49
2022/07/29 08:34:29;;;;;;;0.17;0.00;;;;;;;19.31;100.00;101108.53;5084562;28;20027;-53
2022/07/29 08:36:55;;;;;;;1.20;0.30;;;;;;;19.51;100.00;101116.22;5086085;28;20035;-49
2022/07/29 08:39:21;;;;;;;0.17;0.00;;;;;;;19.76;100.00;101113.31;5083174;28;20023;-48
2022/07/29 08:41:47;;;;;;;0.10;0.00;;;;;;;19.89;100.00;101111.44;5080964;28;20108;-49
2022/07/29 08:44:13;;;;;;;2.88;0.00;;;;;;;19.74;100.00;101109.22;5077847;28;21466;-48
2022/07/29 08:46:39;;;;;;;4.07;0.05;;;;;;;19.80;100.00;101109.09;5079065;28;20034;-51
2022/07/29 08:49:05;;;;;;;1.48;0.28;;;;;;;19.94;100.00;101106.16;5077813;28;20028;-49
2022/07/29 08:51:33;;;;;;;0.55;0.20;;;;;;;20.07;100.00;101107.75;5077680;28;20028;-52
2022/07/29 08:53:59;;;;;;;0.30;0.05;;;;;;;20.11;100.00;101111.59;5082676;28;20422;-54
2022/07/29 08:56:24;;;;;;;0.40;0.13;;;;;;;20.25;100.00;101110.25;5081965;28;20097;-55
2022/07/29 08:58:50;;;;;;;3.28;0.10;;;;;;;20.47;100.00;101111.22;5081083;28;20024;-52
2022/07/29 09:01:23;;;;;;;2.75;0.35;;;;;;;20.69;100.00;101099.78;5080195;28;20036;-50
2022/07/29 09:03:49;;;;;;;1.63;0.05;;;;;;;20.82;100.00;101099.47;5078923;28;20060;-52
2022/07/29 09:06:16;;;;;;;1.38;0.00;;;;;;;20.74;100.00;101104.44;5083642;28;20039;-54
2022/07/29 09:08:42;;;;;;;0.63;0.30;;;;;;;20.63;100.00;101106.16;5082030;28;20109;-55
2022/07/29 09:11:20;;;;;;;1.25;0.13;;;;;;;20.61;100.00;101102.88;5052788;27;20392;-48
2022/07/29 09:13:46;;;;;;;1.17;0.32;;;;;;;20.84;100.00;101108.13;5031953;28;20372;-49
2022/07/29 09:16:11;;;;;;;0.38;0.05;;;;;;;21.09;100.00;101110.44;5044158;28;20037;-51
2022/07/29 09:18:39;;;;;;;0.10;0.00;;;;;;;21.30;100.00;101100.75;5040835;28;20086;-55
2022/07/29 09:24:08;;;;;;;1.65;0.10;;;;;;;21.34;100.00;101096.50;5040329;28;20501;-49
2022/07/29 09:26:40;;;;;;;0.68;0.00;;;;;;;21.36;100.00;101098.94;5034779;28;20479;-54
2022/07/29 09:29:09;;;;;;;1.20;0.17;;;;;;;21.56;100.00;101093.88;5037582;28;20203;-48
2022/07/29 09:31:38;;;;;;;4.20;0.10;;;;;;;21.72;100.00;101096.78;5042633;28;20167;-52
2022/07/29 09:34:05;;;;;;;0.93;0.20;;;;;;;21.96;100.00;101092.75;5034254;28;20386;-49
2022/07/29 09:36:30;;;;;;;1.50;0.03;;;;;;;22.23;100.00;101086.59;5042536;28;20056;-49
2022/07/29 09:39:00;;;;;;;1.35;0.35;;;;;;;22.33;100.00;101093.97;5037883;28;20132;-50
2022/07/29 09:41:29;;;;;;;1.80;0.10;;;;;;;22.39;100.00;101091.09;5043832;28;20025;-52
2022/07/29 09:43:59;;;;;;;3.30;0.10;;;;;;;22.46;100.00;101093.59;5041001;28;20033;-53
2022/07/29 09:46:25;;;;;;;3.72;0.13;;;;;;;22.44;100.00;101084.94;5045325;28;20048;-56
2022/07/29 09:49:10;;;;;;;1.75;0.00;;;;;;;22.30;100.00;101089.09;5032110;28;20030;-53
2022/07/29 09:51:36;;;;;;;0.70;0.00;;;;;;;22.23;100.00;101085.78;5042839;28;20033;-54
2022/07/29 09:54:04;;;;;;;4.43;0.10;;;;;;;22.21;100.00;101088.75;5036456;28;20057;-54
2022/07/29 09:56:40;;;;;;;1.92;0.93;;;;;;;22.54;100.00;101089.63;5048106;28;20116;-52
2022/07/29 09:59:06;;;;;;;0.20;0.00;;;;;;;22.81;100.00;101087.69;5034764;28;20029;-56
2022/07/29 10:01:32;;;;;;;7.93;0.10;;;;;;;23.13;100.00;101088.75;5047370;28;20068;-50
2022/07/29 10:03:57;;;;;;;1.95;0.10;;;;;;;23.39;100.00;101073.50;5045526;28;20781;-55
2022/07/29 10:06:22;;;;;;;2.40;0.10;;;;;;;23.59;99.56;101070.09;5047886;28;20041;-49
2022/07/29 10:08:49;;;;;;;0.32;0.00;;;;;;;23.60;97.43;101071.72;5036728;28;20032;-50
2022/07/29 10:11:16;;;;;;;0.85;0.10;;;;;;;23.65;96.90;101072.56;5036893;28;20042;-49
2022/07/29 10:13:43;;;;;;;0.57;0.00;;;;;;;23.66;95.59;101071.47;5045464;28;20033;-56
2022/07/29 10:16:09;;;;;;;2.75;0.10;;;;;;;23.79;97.13;101070.19;5044776;28;20049;-53
2022/07/29 10:18:37;;;;;;;1.52;0.20;;;;;;;24.06;96.67;101080.88;5047900;28;20056;-54
2022/07/29 10:21:03;;;;;;;1.00;0.13;;;;;;;24.24;95.00;101082.28;5033502;28;20034;-55
2022/07/29 10:23:29;;;;;;;4.88;1.15;;;;;;;24.06;92.97;101085.44;5029383;28;20026;-53
2022/07/29 10:25:55;;;;;;;2.25;0.50;;;;;;;23.90;92.46;101082.69;5025439;28;20045;-50
2022/07/29 10:28:20;;;;;;;8.75;1.00;;;;;;;23.66;91.48;101076.88;5025584;28;20025;-57
2022/07/29 10:30:50;;;;;;;4.88;0.90;;;;;;;23.60;89.66;101083.38;5020722;28;20037;-54
2022/07/29 10:33:33;;;;;;;0.25;0.10;;;;;;;23.53;90.46;101088.19;5022562;28;20033;-53
2022/07/29 10:36:15;;;;;;;6.85;0.10;;;;;;;23.84;87.14;101081.06;5021690;28;20040;-54
2022/07/29 10:39:05;;;;;;;5.78;0.70;;;;;;;23.60;83.26;101080.66;5025596;28;20064;-51
2022/07/29 10:41:34;;;;;;;1.77;0.10;;;;;;;23.14;88.85;101093.91;5027034;28;20053;-51
2022/07/29 10:44:16;;;;;;;1.27;0.40;;;;;;;23.30;85.97;101074.00;5015941;28;20101;-49
2022/07/29 10:46:42;;;;;;;1.20;0.00;;;;;;;23.33;84.85;101078.06;5024227;28;20030;-50
2022/07/29 10:49:17;;;;;;;12.27;0.57;;;;;;;22.98;85.51;101070.56;5021284;28;20471;-55
2022/07/29 10:52:03;;;;;;;3.97;0.20;;;;;;;23.14;84.49;101072.28;5033934;28;20041;-51
2022/07/29 10:57:26;;;;;;;1.27;0.08;;;;;;;23.93;82.86;101065.09;5024292;28;20411;-52
2022/07/29 11:00:01;;;;;;;3.20;0.40;;;;;;;24.22;84.30;101075.50;5020778;28;20100;-50
2022/07/29 11:02:56;;;;;;;2.17;0.00;;;;;;;24.81;84.66;101070.41;5038528;28;20040;-53
2022/07/29 11:05:19;;;;;;;;;;;;;;;25.23;81.29;101072.00;5033557;28;20041;-55
2022/07/29 11:08:12;;;;;;;0.52;0.10;;;;;;;25.43;81.81;101062.19;5019779;28;19976;-53
2022/07/29 11:10:38;;;;;;;2.63;0.10;;;;;;;25.58;81.58;101067.59;5026649;28;20053;-50
2022/07/29 11:13:03;;;;;;;5.57;0.20;;;;;;;25.60;82.83;101068.09;5031995;28;20329;-55
2022/07/29 11:15:30;;;;;;;1.30;0.25;;;;;;;25.40;81.21;101066.28;5024049;28;20051;-56
2022/07/29 11:17:56;;;;;;;2.05;0.20;;;;;;;25.23;80.49;101065.78;5030059;28;20025;-52
2022/07/29 11:21:00;;;;;;;1.60;0.08;;;;;;;25.24;76.17;101070.09;5020055;28;20379;-56
2022/07/29 11:23:31;;;;;;;0.75;0.00;;;;;;;24.49;80.26;101081.50;5042189;28;20041;-52
2022/07/29 11:26:15;;;;;;;;;;;;;;;24.06;78.08;101075.44;5026745;28;20048;-54
2022/07/29 11:28:49;;;;;;;2.80;0.40;;;;;;;23.77;80.29;101074.25;5022974;28;19923;-56
2022/07/29 11:31:18;;;;;;;0.93;0.22;;;;;;;23.78;81.64;101070.50;5021670;28;20041;-57